Latest Weather Observations for Lismore Airport

IDN60801

Issued at 10:32 am EST Sunday 16 June 2019 (issued every 10 minutes, with the page automatically refreshed every 10 minutes)

About weather observations | Map of weather stations | Latest weather observations for NSW | Other Formats
Station Details ID: 058214 Name: LISMORE AIRPORT AWS Lat: -28.83 Lon: 153.26 Height: 9.21 m
Data from the previous 72 hours. | See also: Recent months at Lismore Airport
Date/Time
EST
Temp
°C
App
Temp
°C
Dew
Point
°C
Rel
Hum
%
Delta-T
°C
Wind Press
QNH
hPa
Press
MSL
hPa
Rain since
9am
mm
Dir  Spd
km/h
Gust
km/h
Spd
kts
Gust
kts
16/10:30am 19.1 19.6 15.6 80 2.1 NNW 7 15 4 8 1019.2 1019.2 0.0
16/10:23am 19.4 21.2 16.4 83 1.8 N 2 11 1 6 1019.3 1019.3 0.0
16/10:00am 18.4 20.0 14.9 80 2.0 CALM 0 9 0 5 1019.5 1019.5 0.0
16/09:35am 18.2 19.9 15.1 82 1.8 CALM 0 0 0 0 1019.8 1019.8 0.0
16/09:30am 18.4 20.2 15.6 84 1.6 CALM 0 0 0 0 1019.8 1019.8 0.0
16/09:16am 17.8 18.4 15.2 85 1.5 W 6 9 3 5 1019.9 1019.9 0.0
16/09:00am 17.3 17.9 15.3 88 1.2 WSW 6 9 3 5 1019.8 1019.8 17.6
16/08:30am 16.8 17.5 15.7 93 0.6 SW 6 11 3 6 1019.5 1019.5 17.6
16/08:15am 16.6 18.5 15.8 95 0.5 CALM 0 0 0 0 1019.4 1019.4 17.6
16/08:00am 16.4 18.3 15.8 96 0.4 CALM 0 0 0 0 1019.2 1019.2 17.6
16/07:47am 16.4 18.3 15.8 96 0.4 CALM 0 0 0 0 1019.1 1019.1 17.6
16/07:30am 15.9 17.6 15.3 96 0.3 CALM 0 0 0 0 1019.3 1019.3 17.6
16/07:00am 16.0 17.8 15.4 96 0.3 CALM 0 0 0 0 1019.1 1019.1 17.6
16/06:30am 15.9 17.7 15.4 97 0.3 CALM 0 0 0 0 1019.0 1019.0 17.6
16/06:00am 15.9 17.7 15.4 97 0.3 CALM 0 0 0 0 1018.4 1018.4 17.6
16/05:53am 15.8 17.5 15.3 97 0.3 CALM 0 0 0 0 1018.3 1018.3 17.6
16/05:30am 15.7 17.4 15.2 97 0.3 CALM 0 0 0 0 1018.0 1018.0 17.6
16/05:00am 15.7 17.4 15.2 97 0.3 CALM 0 0 0 0 1017.6 1017.6 17.4
16/04:30am 15.7 17.4 15.2 97 0.3 CALM 0 0 0 0 1017.6 1017.6 17.4
16/04:00am 15.7 17.4 15.2 97 0.3 CALM 0 0 0 0 1017.7 1017.7 17.4
16/03:30am 15.6 17.3 15.1 97 0.3 CALM 0 0 0 0 1018.0 1018.0 17.4
16/03:20am 15.2 16.7 14.7 97 0.3 CALM 0 0 0 0 1018.1 1018.1 17.4
16/03:00am 15.5 17.1 15.0 97 0.3 CALM 0 0 0 0 1018.0 1018.0 17.4
16/02:30am 15.3 16.9 14.8 97 0.3 CALM 0 0 0 0 1018.4 1018.4 17.4
16/02:00am 15.7 17.4 15.2 97 0.3 CALM 0 0 0 0 1018.3 1018.3 17.4
16/01:30am 15.4 17.0 14.9 97 0.3 CALM 0 0 0 0 1018.4 1018.4 17.4
16/01:00am 15.6 17.3 15.1 97 0.3 CALM 0 0 0 0 1018.3 1018.3 17.4
16/12:30am 15.5 17.1 14.9 96 0.3 CALM 0 6 0 3 1018.6 1018.6 17.4
16/12:00am 16.1 17.9 15.5 96 0.3 CALM 0 0 0 0 1018.8 1018.8 17.4
 
Date/Time
EST
Temp
°C
App
Temp
°C
Dew
Point
°C
Rel
Hum
%
Delta-T
°C
Wind Press
QNH
hPa
Press
MSL
hPa
Rain since
9am
mm
Dir  Spd
km/h
Gust
km/h
Spd
kts
Gust
kts
15/11:40pm 15.6 17.2 14.8 95 0.5 CALM 0 0 0 0 1018.8 1018.8 17.4
15/11:30pm 16.3 18.1 15.5 95 0.5 CALM 0 0 0 0 1018.8 1018.8 17.4
15/11:26pm 16.4 18.2 15.6 95 0.5 CALM 0 0 0 0 1018.8 1018.8 17.4
15/11:00pm 16.8 17.5 16.0 95 0.5 WSW 7 9 4 5 1019.1 1019.1 17.4
15/10:30pm 16.7 17.3 15.9 95 0.5 SE 7 9 4 5 1019.1 1019.1 17.4
15/10:28pm 16.7 17.3 15.9 95 0.5 SE 7 11 4 6 1019.0 1019.0 17.4
15/10:03pm 16.8 17.0 15.7 93 0.6 S 9 15 5 8 1019.1 1019.1 17.0
15/10:00pm 16.7 16.4 15.4 92 0.8 S 11 17 6 9 1019.1 1019.1 17.0
15/09:59pm 16.8 16.5 15.5 92 0.8 S 11 19 6 10 1019.1 1019.1 17.0
15/09:36pm 17.3 15.5 15.5 89 1.1 WSW 19 39 10 21 1019.2 1019.2 7.8
15/09:34pm 17.6 16.5 16.3 92 0.8 WSW 17 30 9 16 1019.2 1019.2 4.4
15/09:30pm 18.0 17.8 16.7 92 0.8 SSW 13 22 7 12 1019.1 1019.1 2.4
15/09:00pm 17.8 18.7 16.7 93 0.7 SW 7 15 4 8 1018.5 1018.5 2.4
15/08:43pm 17.8 19.2 16.5 92 0.8 SSE 4 9 2 5 1018.6 1018.6 2.4
15/08:30pm 17.9 19.0 16.6 92 0.8 SSE 6 9 3 5 1018.7 1018.7 2.4
15/08:00pm 17.4 19.6 16.6 95 0.5 CALM 0 0 0 0 1018.5 1018.5 2.4
15/07:30pm 17.0 19.1 16.2 95 0.5 CALM 0 0 0 0 1018.4 1018.4 2.4
15/07:00pm 16.5 18.3 15.5 94 0.6 CALM 0 0 0 0 1018.1 1018.1 2.4
15/06:55pm 16.4 18.2 15.4 94 0.6 CALM 0 0 0 0 1018.2 1018.2 2.4
15/06:42pm 16.3 18.0 15.3 94 0.6 CALM 0 0 0 0 1017.9 1017.9 2.4
15/06:30pm 16.3 18.0 15.2 93 0.6 CALM 0 0 0 0 1017.7 1017.7 2.4
15/06:00pm 17.0 18.9 15.7 92 0.8 CALM 0 0 0 0 1017.4 1017.4 2.4
15/05:30pm 17.0 18.8 15.5 91 0.9 CALM 0 0 0 0 1017.3 1017.3 2.4
15/05:00pm 18.2 18.9 16.2 88 1.2 SE 7 9 4 5 1017.0 1017.0 2.4
15/04:30pm 19.4 21.4 17.0 86 1.5 SSE 2 11 1 6 1016.8 1016.8 2.4
15/04:00pm 19.7 22.1 16.9 84 1.7 CALM 0 0 0 0 1016.6 1016.6 2.4
15/03:30pm 19.5 21.8 16.7 84 1.7 CALM 0 0 0 0 1016.4 1016.4 2.4
15/03:00pm 20.3 21.4 16.7 80 2.2 SE 6 9 3 5 1016.6 1016.6 2.4
15/02:52pm 20.3 21.3 16.9 81 2.1 SSE 7 11 4 6 1016.6 1016.6 2.4
15/02:30pm 20.0 21.1 17.2 84 1.7 SSE 7 11 4 6 1016.8 1016.8 2.4
15/02:14pm 20.4 21.6 17.4 83 1.8 SSE 7 9 4 5 1016.8 1016.8 2.4
15/02:11pm 20.4 21.8 17.8 85 1.6 SE 7 9 4 5 1016.8 1016.8 2.4
15/02:00pm 19.8 20.5 17.0 84 1.7 SE 9 11 5 6 1016.9 1016.9 2.4
15/01:52pm 20.1 21.2 17.9 87 1.4 SE 9 11 5 6 1017.0 1017.0 2.4
15/01:50pm 20.0 21.4 17.8 87 1.4 SE 7 11 4 6 1017.0 1017.0 2.4
15/01:30pm 19.6 21.6 17.0 85 1.6 S 2 7 1 4 1017.2 1017.2 2.4
15/01:00pm 19.1 21.5 17.1 88 1.2 CALM 0 0 0 0 1017.4 1017.4 2.2
15/12:30pm 19.3 21.7 16.9 86 1.5 CALM 0 0 0 0 1017.8 1017.8 1.4
15/12:00pm 19.0 21.3 16.8 87 1.3 CALM 0 0 0 0 1018.3 1018.3 1.4
15/11:58am 19.0 21.3 16.8 87 1.3 CALM 0 0 0 0 1018.3 1018.3 1.4
15/11:38am 19.0 21.4 17.1 89 1.2 CALM 0 0 0 0 1018.5 1018.5 1.4
15/11:30am 18.7 21.1 16.9 89 1.1 CALM 0 0 0 0 1018.7 1018.7 1.4
15/11:18am 18.8 20.8 16.9 89 1.1 SSW 2 7 1 4 1019.0 1019.0 1.0
15/11:15am 18.7 20.3 16.9 89 1.1 SSW 4 7 2 4 1019.0 1019.0 0.2
15/11:00am 18.9 19.5 16.7 87 1.3 SW 9 11 5 6 1019.3 1019.3 0.0
15/10:30am 19.0 21.3 16.8 87 1.3 CALM 0 0 0 0 1019.6 1019.6 0.0
15/10:00am 18.7 20.8 16.3 86 1.4 CALM 0 0 0 0 1019.8 1019.8 0.0
15/09:35am 18.2 20.4 16.4 89 1.1 CALM 0 0 0 0 1019.8 1019.8 0.0
15/09:30am 18.2 20.4 16.4 89 1.1 CALM 0 0 0 0 1019.8 1019.8 0.0
15/09:00am 17.3 19.4 16.3 94 0.6 CALM 0 0 0 0 1019.8 1019.8 1.4
15/08:30am 17.1 19.1 16.1 94 0.6 CALM 0 0 0 0 1019.7 1019.7 1.2
15/08:11am 17.0 19.0 16.0 94 0.6 CALM 0 0 0 0 1019.6 1019.6 1.0
15/08:00am 16.9 18.9 15.9 94 0.6 CALM 0 0 0 0 1019.5 1019.5 1.0
15/07:30am 16.9 17.8 16.1 95 0.5 WNW 6 11 3 6 1019.5 1019.5 0.4
15/07:11am 16.8 18.8 16.0 95 0.5 CALM 0 0 0 0 1019.0 1019.0 0.4
15/07:00am 16.7 18.6 15.7 94 0.6 CALM 0 0 0 0 1018.8 1018.8 0.4
15/06:56am 16.6 18.4 15.6 94 0.6 CALM 0 0 0 0 1018.7 1018.7 0.4
15/06:30am 16.7 18.6 15.7 94 0.6 CALM 0 4 0 2 1018.5 1018.5 0.4
15/06:00am 16.8 18.7 15.7 93 0.6 CALM 0 0 0 0 1018.1 1018.1 0.4
15/05:30am 16.8 18.7 15.8 94 0.6 CALM 0 0 0 0 1018.2 1018.2 0.4
15/05:00am 16.7 18.6 15.7 94 0.6 CALM 0 0 0 0 1017.7 1017.7 0.4
15/04:30am 16.7 18.6 15.7 94 0.6 CALM 0 0 0 0 1017.4 1017.4 0.4
15/04:00am 16.8 18.7 15.8 94 0.6 CALM 0 0 0 0 1017.5 1017.5 0.4
15/03:30am 16.9 18.9 16.1 95 0.5 CALM 0 0 0 0 1017.4 1017.4 0.4
15/03:00am 16.9 18.9 15.9 94 0.6 CALM 0 0 0 0 1017.5 1017.5 0.4
15/02:30am 17.0 19.0 16.0 94 0.6 CALM 0 0 0 0 1017.6 1017.6 0.4
15/02:00am 17.0 17.4 16.2 95 0.5 SSW 9 13 5 7 1017.8 1017.8 0.4
15/01:52am 17.0 18.3 16.2 95 0.5 S 4 13 2 7 1017.7 1017.7 0.4
15/01:43am 17.1 19.1 16.1 94 0.6 CALM 0 0 0 0 1017.5 1017.5 0.4
15/01:30am 17.1 19.1 16.1 94 0.6 CALM 0 0 0 0 1017.6 1017.6 0.4
15/01:00am 17.3 19.2 15.8 91 0.9 CALM 0 0 0 0 1018.3 1018.3 0.0
15/12:34am 17.2 19.1 15.7 91 0.9 CALM 0 0 0 0 1018.4 1018.4 0.0
15/12:32am 17.2 19.1 15.7 91 0.9 CALM 0 0 0 0 1018.4 1018.4 0.0
15/12:30am 17.2 19.1 15.7 91 0.9 CALM 0 0 0 0 1018.4 1018.4 0.0
15/12:18am 17.3 19.2 15.8 91 0.9 CALM 0 0 0 0 1018.5 1018.5 0.0
15/12:00am 17.3 17.9 15.8 91 0.9 S 7 11 4 6 1018.5 1018.5 0.0
 
Date/Time
EST
Temp
°C
App
Temp
°C
Dew
Point
°C
Rel
Hum
%
Delta-T
°C
Wind Press
QNH
hPa
Press
MSL
hPa
Rain since
9am
mm
Dir  Spd
km/h
Gust
km/h
Spd
kts
Gust
kts
14/11:55pm 17.4 17.7 15.9 91 0.9 SSW 9 11 5 6 1018.4 1018.4 0.0
14/11:30pm 17.6 17.5 15.9 90 1.0 SSW 11 13 6 7 1018.7 1018.7 0.0
14/11:20pm 17.6 17.5 15.9 90 1.0 S 11 17 6 9 1018.6 1018.6 0.0
14/11:00pm 16.7 18.4 15.2 91 0.9 CALM 0 0 0 0 1018.8 1018.8 0.0
14/10:30pm 17.1 18.9 15.4 90 1.0 CALM 0 0 0 0 1018.8 1018.8 0.0
14/10:00pm 17.3 19.0 15.3 88 1.2 CALM 0 0 0 0 1018.6 1018.6 0.0
14/09:30pm 17.9 19.9 15.9 88 1.2 CALM 0 0 0 0 1018.9 1018.9 0.0
14/09:00pm 17.8 19.7 15.8 88 1.2 CALM 0 0 0 0 1019.0 1019.0 0.0
14/08:46pm 17.7 19.7 15.9 89 1.1 CALM 0 0 0 0 1018.9 1018.9 0.0
14/08:30pm 17.9 19.9 15.9 88 1.2 CALM 0 0 0 0 1018.8 1018.8 0.0
14/08:26pm 17.8 19.7 15.8 88 1.2 CALM 0 0 0 0 1018.8 1018.8 0.0
14/08:00pm 17.4 19.2 15.6 89 1.1 CALM 0 0 0 0 1018.6 1018.6 0.0
14/07:30pm 17.0 18.7 15.3 90 1.0 CALM 0 0 0 0 1018.3 1018.3 0.0
14/07:00pm 16.5 17.9 14.5 88 1.1 CALM 0 0 0 0 1017.9 1017.9 0.0
14/06:30pm 17.4 19.0 14.9 85 1.4 CALM 0 0 0 0 1017.6 1017.6 0.0
14/06:00pm 19.1 20.9 15.6 80 2.1 CALM 0 0 0 0 1017.4 1017.4 0.0
14/05:30pm 19.6 20.3 15.7 78 2.3 SE 6 9 3 5 1017.2 1017.2 0.0
14/05:00pm 20.0 20.5 15.6 76 2.6 ESE 7 11 4 6 1016.9 1016.9 0.0
14/04:30pm 20.8 20.7 16.0 74 2.9 SE 11 15 6 8 1016.7 1016.7 0.0
14/04:00pm 21.5 20.7 16.0 71 3.3 SE 15 20 8 11 1016.4 1016.4 0.0
14/03:30pm 22.1 21.4 16.4 70 3.5 SE 15 20 8 11 1016.3 1016.3 0.0
14/03:00pm 22.2 21.0 16.2 69 3.6 ESE 17 24 9 13 1016.2 1016.2 0.0
14/02:30pm 22.1 21.4 16.4 70 3.5 SE 15 20 8 11 1016.4 1016.4 0.0
14/02:00pm 22.8 21.9 16.8 69 3.7 SE 17 20 9 11 1016.3 1016.3 0.0
14/01:30pm 23.3 23.4 15.4 61 4.7 E 9 15 5 8 1016.4 1016.4 0.0
14/01:00pm 23.8 23.7 13.9 54 5.8 SSE 7 11 4 6 1016.7 1016.7 0.0
14/12:30pm 23.8 23.0 12.8 50 6.3 SE 9 13 5 7 1017.1 1017.1 0.0
14/12:00pm 24.0 22.4 11.7 46 6.9 SSE 11 17 6 9 1017.5 1017.5 0.0
14/11:30am 22.7 21.0 12.6 53 5.8 S 13 17 7 9 1018.1 1018.1 0.0
14/11:00am 22.0 20.7 14.9 64 4.2 SSE 15 20 8 11 1018.3 1018.3 0.0
14/10:30am 21.0 19.5 14.2 65 4.0 S 15 20 8 11 1018.7 1018.7 0.0
14/10:00am 20.2 19.0 14.1 68 3.5 S 13 17 7 9 1018.8 1018.8 0.0
14/09:30am 18.7 19.9 13.8 73 2.8 CALM 0 0 0 0 1018.6 1018.6 0.0
14/09:00am 17.5 17.7 13.2 76 2.4 NW 4 9 2 5 1018.4 1018.4 0.2
14/08:30am 15.2 14.5 13.1 87 1.2 NNE 9 11 5 6 1018.4 1018.4 0.2
14/08:00am 13.7 12.4 12.4 92 0.7 NNE 11 13 6 7 1018.1 1018.1 0.2
14/07:30am 12.8 11.2 11.7 93 0.6 N 11 13 6 7 1018.0 1018.0 0.2
14/07:00am 12.4 11.2 11.5 94 0.5 N 9 11 5 6 1017.9 1017.9 0.2
14/06:30am 12.0 10.2 10.9 93 0.6 N 11 13 6 7 1017.4 1017.4 0.2
14/06:00am 12.3 10.3 11.4 94 0.5 N 13 15 7 8 1017.3 1017.3 0.2
14/05:30am 12.4 10.3 11.3 93 0.6 NNE 13 15 7 8 1016.7 1016.7 0.2
14/05:00am 12.3 10.6 11.2 93 0.6 NNE 11 13 6 7 1016.6 1016.6 0.2
14/04:30am 12.3 11.0 11.2 93 0.6 NNE 9 11 5 6 1016.4 1016.4 0.2
14/04:00am 12.6 10.9 11.3 92 0.7 NE 11 13 6 7 1016.2 1016.2 0.2
14/03:30am 12.8 11.6 11.5 92 0.7 NE 9 11 5 6 1016.2 1016.2 0.2
14/03:00am 13.4 11.7 12.3 93 0.6 N 13 17 7 9 1016.4 1016.4 0.2
14/02:30am 12.6 11.8 11.7 94 0.5 NE 7 9 4 5 1016.4 1016.4 0.2
14/02:00am 12.7 11.5 11.6 93 0.6 NNE 9 13 5 7 1016.5 1016.5 0.2
14/01:30am 12.4 11.1 11.3 93 0.6 NNE 9 15 5 8 1016.8 1016.8 0.2
14/01:00am 13.0 11.2 12.1 94 0.5 N 13 17 7 9 1016.9 1016.9 0.2
14/12:30am 12.5 10.2 11.6 94 0.5 N 15 17 8 9 1017.1 1017.1 0.2
14/12:00am 12.7 10.4 11.9 95 0.4 N 15 15 8 8 1017.5 1017.5 0.2
 
Date/Time
EST
Temp
°C
App
Temp
°C
Dew
Point
°C
Rel
Hum
%
Delta-T
°C
Wind Press
QNH
hPa
Press
MSL
hPa
Rain since
9am
mm
Dir  Spd
km/h
Gust
km/h
Spd
kts
Gust
kts
13/11:30pm 13.0 10.8 12.1 94 0.5 N 15 17 8 9 1017.5 1017.5 0.2
13/11:00pm 13.4 11.3 12.3 93 0.6 N 15 17 8 9 1017.7 1017.7 0.2
13/10:30pm 13.8 12.2 12.7 93 0.6 N 13 13 7 7 1017.9 1017.9 0.2
13/10:00pm 13.7 12.0 12.6 93 0.6 N 13 15 7 8 1017.8 1017.8 0.2
13/09:30pm 14.3 12.8 13.2 93 0.6 N 13 15 7 8 1018.0 1018.0 0.2
13/09:00pm 14.0 12.8 12.7 92 0.7 N 11 13 6 7 1017.9 1017.9 0.2
13/08:30pm 14.3 13.9 13.0 92 0.7 N 7 9 4 5 1017.7 1017.7 0.2
13/08:00pm 14.1 13.2 12.5 90 0.9 N 9 13 5 7 1017.1 1017.1 0.2
13/07:30pm 15.0 14.1 12.5 85 1.4 N 9 11 5 6 1016.9 1016.9 0.2
13/07:00pm 16.3 14.6 13.6 84 1.5 N 15 17 8 9 1016.7 1016.7 0.2
13/06:30pm 16.4 14.7 13.5 83 1.6 N 15 17 8 9 1016.4 1016.4 0.2
13/06:00pm 16.3 15.2 13.2 82 1.7 N 11 13 6 7 1016.1 1016.1 0.2
13/05:30pm 16.5 15.3 12.7 78 2.1 NNW 11 13 6 7 1016.4 1016.4 0.2
13/05:00pm 19.1 18.0 13.1 68 3.4 N 11 13 6 7 1015.9 1015.9 0.2
13/04:30pm 21.9 20.6 13.8 60 4.7 N 13 15 7 8 1015.8 1015.8 0.2
13/04:00pm 23.2 21.0 13.4 54 5.7 N 17 22 9 12 1015.6 1015.6 0.2
13/03:30pm 24.1 22.7 13.3 51 6.3 N 13 17 7 9 1015.7 1015.7 0.2
13/03:00pm 24.5 23.1 13.4 50 6.5 N 13 19 7 10 1015.6 1015.6 0.2
13/02:30pm 24.6 23.0 13.8 51 6.3 N 15 20 8 11 1015.9 1015.9 0.2
13/02:00pm 24.7 23.5 13.9 51 6.3 N 13 20 7 11 1016.2 1016.2 0.2
13/01:30pm 24.4 22.2 13.3 50 6.5 NNW 17 26 9 14 1016.6 1016.6 0.2
13/01:00pm 23.9 21.7 13.2 51 6.2 NW 17 24 9 13 1016.8 1016.8 0.2
13/12:30pm 23.7 21.4 13.0 51 6.2 NW 17 24 9 13 1017.4 1017.4 0.2
13/12:00pm 23.5 21.7 13.4 53 5.9 NNW 15 20 8 11 1017.9 1017.9 0.2
13/11:30am 22.8 20.7 13.6 56 5.3 NNW 17 22 9 12 1018.5 1018.5 0.0
13/11:10am 22.2 20.3 14.1 60 4.7 N 17 20 9 11 1019.0 1019.0 0.0
13/11:00am 22.1 19.8 14.2 61 4.6 NNW 19 24 10 13 1019.2 1019.2 0.0
13/10:51am 22.1 20.0 13.7 59 4.9 N 17 22 9 12 1019.2 1019.2 0.0

Other formats

Comma delimited format used in spreadsheet applications
http://www.bom.gov.au/fwo/IDN60801/IDN60801.94572.axf

JavaScript Object Notation format (JSON) in row-major order
http://www.bom.gov.au/fwo/IDN60801/IDN60801.94572.json

Data quality

Most of these data are generated automatically and are frequently updated. Quality checks on data are not normally performed. It is possible for incorrect values to appear. Refer to information at About Latest Weather Observations and please check the disclaimer before using these data.